createdAt,value
2018-12-03T00:00:50.679Z,99665.75
2018-12-03T00:03:19.979Z,99652.80
2018-12-03T00:05:48.872Z,99656.38
2018-12-03T00:08:17.761Z,99658.03
2018-12-03T00:10:46.755Z,99660.59
2018-12-03T00:13:15.665Z,99660.48
2018-12-03T00:15:44.514Z,99661.11
2018-12-03T00:18:13.431Z,99666.03
2018-12-03T00:20:42.984Z,99662.30
2018-12-03T00:23:12.991Z,99660.66
2018-12-03T00:25:42.888Z,99673.35
2018-12-03T00:28:11.701Z,99677.88
2018-12-03T00:30:40.750Z,99672.16
2018-12-03T00:33:09.642Z,99662.50
2018-12-03T00:35:38.531Z,99664.75
2018-12-03T00:38:07.798Z,99671.25
2018-12-03T00:40:36.722Z,99661.02
2018-12-03T00:43:05.987Z,99656.58
2018-12-03T00:45:34.918Z,99660.80
2018-12-03T00:48:03.907Z,99652.56
2018-12-03T00:50:32.772Z,99654.91
2018-12-03T00:53:01.834Z,99657.49
2018-12-03T00:55:30.681Z,99656.64
2018-12-03T00:57:59.569Z,99661.22
2018-12-03T01:00:29.025Z,99652.52
2018-12-03T01:02:58.008Z,99655.16
2018-12-03T01:05:26.913Z,99652.28
2018-12-03T01:07:56.224Z,99651.57
2018-12-03T01:10:25.055Z,99653.70
2018-12-03T01:12:53.850Z,99658.44
2018-12-03T01:15:22.716Z,99653.73
2018-12-03T01:17:51.480Z,99659.28
2018-12-03T01:20:20.269Z,99661.19
2018-12-03T01:22:49.286Z,99662.98
2018-12-03T01:25:18.028Z,99660.41
2018-12-03T01:27:46.814Z,99659.78
2018-12-03T01:30:15.783Z,99656.89
2018-12-03T01:32:44.649Z,99654.64
2018-12-03T01:35:13.514Z,99656.52
2018-12-03T01:37:43.123Z,99654.76
2018-12-03T01:45:42.130Z,99651.05
2018-12-03T01:48:12.308Z,99646.67
2018-12-03T01:50:42.307Z,99650.83
2018-12-03T01:53:12.539Z,99650.11
2018-12-03T01:58:52.123Z,99657.44
2018-12-03T02:01:22.140Z,99650.58
2018-12-03T02:03:52.174Z,99652.20
2018-12-03T02:06:41.067Z,99646.50
2018-12-03T02:09:11.209Z,99645.81
2018-12-03T02:11:41.202Z,99645.88
2018-12-03T02:19:55.863Z,99638.49
2018-12-03T02:22:25.886Z,99642.23
2018-12-03T02:24:55.880Z,99643.34
2018-12-03T02:27:26.077Z,99645.05
2018-12-03T02:29:56.135Z,99652.31
2018-12-03T02:32:26.157Z,99643.09
2018-12-03T02:34:56.337Z,99635.67
2018-12-03T02:37:26.405Z,99631.31
2018-12-03T02:39:56.420Z,99621.67
2018-12-03T02:42:45.298Z,99626.51
2018-12-03T02:45:15.837Z,99619.00
2018-12-03T02:47:45.843Z,99621.30
2018-12-03T02:50:16.427Z,99624.62
2018-12-03T02:52:46.444Z,99620.27
2018-12-03T02:58:18.940Z,99623.43
2018-12-03T03:00:48.957Z,99624.56
2018-12-03T03:03:18.931Z,99621.88
2018-12-03T03:05:49.707Z,99618.98
2018-12-03T03:08:19.725Z,99620.55
2018-12-03T03:10:49.745Z,99612.29
2018-12-03T03:13:19.865Z,99609.82
2018-12-03T03:15:49.901Z,99612.23
2018-12-03T03:18:19.909Z,99612.93
2018-12-03T03:20:50.120Z,99614.20
2018-12-03T03:23:20.140Z,99608.41
2018-12-03T03:25:50.161Z,99611.08
2018-12-03T03:28:20.309Z,99618.39
2018-12-03T03:30:50.430Z,99607.70
2018-12-03T03:36:34.428Z,99604.52
2018-12-03T03:39:15.986Z,99605.53
2018-12-03T03:41:46.215Z,99606.22
2018-12-03T03:44:16.227Z,99597.87
2018-12-03T03:46:46.313Z,99601.27
2018-12-03T03:49:16.365Z,99595.34
2018-12-03T03:51:46.381Z,99603.31
2018-12-03T03:54:16.402Z,99600.80
2018-12-03T03:56:46.443Z,99591.44
2018-12-03T03:59:16.496Z,99599.48
2018-12-03T04:01:46.532Z,99603.19
2018-12-03T04:07:19.067Z,99598.71
2018-12-03T04:09:49.029Z,99604.76
2018-12-03T04:12:19.096Z,99604.95
2018-12-03T04:14:49.228Z,99603.36
2018-12-03T04:17:19.343Z,99604.91
2018-12-03T04:19:49.391Z,99601.94
2018-12-03T04:22:19.554Z,99596.92
2018-12-03T04:24:49.640Z,99592.98
2018-12-03T04:27:19.696Z,99594.91
2018-12-03T04:29:49.917Z,99592.08
2018-12-03T04:32:20.004Z,99583.42
2018-12-03T04:34:50.006Z,99579.75
2018-12-03T04:37:20.783Z,99575.81
2018-12-03T04:39:51.997Z,99572.91
2018-12-03T04:42:22.082Z,99573.61
2018-12-03T04:44:52.292Z,99568.48
2018-12-03T04:47:22.316Z,99568.06
2018-12-03T04:49:52.326Z,99571.56
2018-12-03T04:52:22.449Z,99570.52
2018-12-03T04:54:52.592Z,99576.29
2018-12-03T04:57:22.654Z,99569.19
2018-12-03T04:59:52.948Z,99578.27
2018-12-03T05:02:22.997Z,99568.75
2018-12-03T05:04:53.064Z,99565.81
2018-12-03T05:07:23.204Z,99557.00
2018-12-03T05:09:53.281Z,99564.88
2018-12-03T05:12:23.298Z,99548.63
2018-12-03T05:14:53.464Z,99553.84
2018-12-03T05:17:23.559Z,99551.42
2018-12-03T05:19:53.683Z,99551.42
2018-12-03T05:22:23.877Z,99557.78
2018-12-03T05:24:53.910Z,99562.84
2018-12-03T05:27:23.943Z,99557.08
2018-12-03T05:29:54.038Z,99549.11
2018-12-03T05:32:24.042Z,99530.48
2018-12-03T05:34:54.161Z,99546.00
2018-12-03T05:37:24.371Z,99531.98
2018-12-03T05:39:54.450Z,99532.20
2018-12-03T05:42:24.576Z,99535.73
2018-12-03T05:44:54.755Z,99529.30
2018-12-03T05:47:24.833Z,99530.34
2018-12-03T05:49:54.887Z,99523.86
2018-12-03T05:52:25.010Z,99522.38
2018-12-03T05:54:55.064Z,99522.03
2018-12-03T05:57:25.049Z,99527.39
2018-12-03T05:59:55.250Z,99532.45
2018-12-03T06:02:25.281Z,99532.45
2018-12-03T06:04:55.302Z,99530.41
2018-12-03T06:07:25.583Z,99528.80
2018-12-03T06:09:55.647Z,99520.55
2018-12-03T06:12:25.653Z,99524.64
2018-12-03T06:14:55.811Z,99528.02
2018-12-03T06:17:25.880Z,99519.42
2018-12-03T06:19:55.861Z,99520.72
2018-12-03T06:22:25.998Z,99529.42
2018-12-03T06:24:56.054Z,99529.55
2018-12-03T06:27:44.939Z,99522.22
2018-12-03T06:30:16.919Z,99531.48
2018-12-03T06:32:46.933Z,99521.66
2018-12-03T06:35:17.994Z,99521.02
2018-12-03T06:37:48.420Z,99518.01
2018-12-03T06:40:37.380Z,99523.00
2018-12-03T06:43:07.977Z,99521.19
2018-12-03T06:45:56.994Z,99519.29
2018-12-03T06:48:27.126Z,99515.27
2018-12-03T06:50:57.147Z,99519.37
2018-12-03T06:53:27.264Z,99517.54
2018-12-03T06:55:57.317Z,99515.50
2018-12-03T06:58:27.385Z,99516.70
2018-12-03T07:00:57.581Z,99519.03
2018-12-03T07:03:27.584Z,99532.63
2018-12-03T07:05:57.631Z,99542.63
2018-12-03T07:11:09.675Z,99539.38
2018-12-03T07:13:39.895Z,99539.09
2018-12-03T07:16:09.908Z,99538.95
2018-12-03T07:18:39.963Z,99549.09
2018-12-03T07:21:10.122Z,99546.28
2018-12-03T07:23:40.180Z,99541.23
2018-12-03T07:26:10.245Z,99555.58
2018-12-03T07:28:40.370Z,99563.41
2018-12-03T07:31:10.418Z,99559.11
2018-12-03T07:33:40.424Z,99567.14
2018-12-03T07:36:10.487Z,99570.73
2018-12-03T07:38:40.558Z,99574.95
2018-12-03T07:41:29.549Z,99583.53
2018-12-03T07:46:48.910Z,99593.42
2018-12-03T07:49:19.000Z,99595.39
2018-12-03T07:51:49.059Z,99601.44
2018-12-03T07:54:19.320Z,99603.88
2018-12-03T07:56:49.390Z,99608.55
2018-12-03T07:59:19.433Z,99606.70
2018-12-03T08:01:49.732Z,99604.39
2018-12-03T08:04:38.601Z,99604.67
2018-12-03T08:07:08.781Z,99605.09
2018-12-03T08:09:57.641Z,99606.30
2018-12-03T08:12:27.961Z,99606.30
2018-12-03T08:14:58.011Z,99612.45
2018-12-03T08:17:28.038Z,99605.25
2018-12-03T08:19:58.212Z,99605.84
2018-12-03T08:22:28.293Z,99612.02
2018-12-03T08:24:58.284Z,99610.06
2018-12-03T08:27:28.382Z,99616.38
2018-12-03T08:29:58.420Z,99616.12
2018-12-03T08:32:28.440Z,99619.43
2018-12-03T08:34:58.600Z,99626.31
2018-12-03T08:40:29.427Z,99631.81
2018-12-03T08:42:59.402Z,99627.25
2018-12-03T08:45:29.524Z,99623.50
2018-12-03T08:51:00.401Z,99630.63
2018-12-03T08:53:30.774Z,99633.59
2018-12-03T08:56:00.804Z,99638.86
2018-12-03T08:58:30.823Z,99640.13
2018-12-03T09:03:42.556Z,99636.19
2018-12-03T09:06:21.114Z,99636.19
2018-12-03T09:08:52.313Z,99645.86
2018-12-03T09:11:23.599Z,99645.07
2018-12-03T09:13:54.586Z,99641.63
2018-12-03T09:16:24.871Z,99644.23
2018-12-03T09:18:54.921Z,99647.05
2018-12-03T09:21:25.612Z,99643.33
2018-12-03T09:26:50.678Z,99639.64
2018-12-03T09:29:20.933Z,99632.69
2018-12-03T09:31:51.673Z,99630.57
2018-12-03T09:34:22.092Z,99631.90
2018-12-03T09:36:53.016Z,99630.90
2018-12-03T09:39:24.150Z,99643.88
2018-12-03T09:41:54.229Z,99646.08
2018-12-03T09:44:24.310Z,99634.59
2018-12-03T09:46:54.308Z,99638.24
2018-12-03T09:49:24.311Z,99644.23
2018-12-03T09:54:36.585Z,99644.30
2018-12-03T09:57:06.769Z,99642.25
2018-12-03T09:59:36.808Z,99654.03
2018-12-03T10:02:07.495Z,99645.20
2018-12-03T10:04:39.970Z,99655.64
2018-12-03T10:07:30.311Z,99646.96
2018-12-03T10:10:11.785Z,99651.64
2018-12-03T10:12:42.211Z,99646.49
2018-12-03T10:18:15.388Z,99641.78
2018-12-03T10:20:50.020Z,99645.02
2018-12-03T10:23:20.212Z,99644.46
2018-12-03T10:25:52.440Z,99638.24
2018-12-03T10:28:22.520Z,99640.84
2018-12-03T10:30:53.670Z,99638.05
2018-12-03T10:36:26.541Z,99635.30
2018-12-03T10:38:56.622Z,99641.63
2018-12-03T10:41:45.667Z,99649.31
2018-12-03T10:47:17.158Z,99644.80
2018-12-03T10:49:47.170Z,99652.56
2018-12-03T10:53:00.440Z,99648.39
2018-12-03T10:55:30.595Z,99652.19
2018-12-03T10:58:00.644Z,99651.07
2018-12-03T11:00:49.601Z,99656.01
2018-12-03T11:03:38.197Z,99657.63
2018-12-03T11:06:20.656Z,99665.85
2018-12-03T11:08:50.788Z,99659.59
2018-12-03T11:11:39.851Z,99677.25
2018-12-03T11:14:20.723Z,99667.43
2018-12-03T11:17:02.211Z,99667.17
2018-12-03T11:25:30.191Z,99661.10
2018-12-03T11:28:02.003Z,99655.58
2018-12-03T11:33:52.588Z,99653.09
2018-12-03T11:37:00.190Z,99667.13
2018-12-03T11:40:09.051Z,99658.69
2018-12-03T11:45:40.994Z,99666.17
2018-12-03T11:48:11.045Z,99654.41
2018-12-03T11:50:41.060Z,99662.04
2018-12-03T11:53:11.207Z,99657.14
2018-12-03T11:55:41.265Z,99662.79
2018-12-03T11:58:50.435Z,99659.34
2018-12-03T12:01:20.531Z,99659.40
2018-12-03T12:03:50.614Z,99654.98
2018-12-03T12:11:43.633Z,99653.09
2018-12-03T12:14:32.558Z,99647.73
2018-12-03T12:17:02.721Z,99656.49
2018-12-03T12:19:32.729Z,99654.99
2018-12-03T12:24:45.403Z,99655.99
2018-12-03T12:27:54.592Z,99657.06
2018-12-03T12:30:24.902Z,99655.30
2018-12-03T12:32:54.879Z,99649.14
2018-12-03T12:38:07.185Z,99640.48
2018-12-03T12:41:16.361Z,99641.63
2018-12-03T12:43:46.468Z,99638.23
2018-12-03T12:50:01.903Z,99647.78
2018-12-03T12:52:31.923Z,99647.61
2018-12-03T12:55:02.111Z,99646.69
2018-12-03T12:57:32.261Z,99643.30
2018-12-03T13:00:02.291Z,99642.05
2018-12-03T13:02:32.374Z,99644.30
2018-12-03T13:05:02.456Z,99651.44
2018-12-03T13:07:32.484Z,99651.14
2018-12-03T13:10:02.521Z,99649.66
2018-12-03T13:12:32.687Z,99655.95
2018-12-03T13:15:02.702Z,99658.05
2018-12-03T13:17:33.871Z,99661.86
2018-12-03T13:22:49.603Z,99661.93
2018-12-03T13:28:03.054Z,99659.03
2018-12-03T13:33:36.089Z,99658.32
2018-12-03T13:41:57.929Z,99648.38
2018-12-03T13:44:28.235Z,99651.11
2018-12-03T13:47:17.145Z,99652.31
2018-12-03T13:52:49.998Z,99646.56
2018-12-03T13:55:38.840Z,99646.98
2018-12-03T13:58:09.000Z,99644.07
2018-12-03T14:00:39.033Z,99649.02
2018-12-03T14:03:32.181Z,99652.96
2018-12-03T14:06:39.775Z,99647.69
2018-12-03T14:09:47.413Z,99649.09
2018-12-03T14:12:55.074Z,99641.25
2018-12-03T14:16:02.802Z,99653.44
2018-12-03T14:18:36.387Z,99655.72
2018-12-03T14:24:20.625Z,99655.77
2018-12-03T14:26:50.881Z,99644.78
2018-12-03T14:29:20.871Z,99644.78
2018-12-03T14:31:50.837Z,99655.12
2018-12-03T14:34:39.673Z,99651.43
2018-12-03T14:37:09.730Z,99659.06
2018-12-03T14:39:39.708Z,99656.64
2018-12-03T14:42:09.933Z,99657.72
2018-12-03T14:44:39.997Z,99659.27
2018-12-03T14:47:10.061Z,99663.08
2018-12-03T14:49:40.174Z,99658.91
2018-12-03T14:52:10.689Z,99672.58
2018-12-03T14:54:42.219Z,99665.95
2018-12-03T14:57:12.376Z,99661.02
2018-12-03T14:59:42.482Z,99668.59
2018-12-03T15:02:12.501Z,99671.66
2018-12-03T15:04:42.681Z,99664.17
2018-12-03T15:07:14.140Z,99662.84
2018-12-03T15:09:44.156Z,99666.73
2018-12-03T15:12:14.352Z,99665.61
2018-12-03T15:14:44.674Z,99671.91
2018-12-03T15:17:14.777Z,99669.05
2018-12-03T15:22:26.907Z,99674.10
2018-12-03T15:24:57.117Z,99667.42
2018-12-03T15:27:27.281Z,99668.17
2018-12-03T15:29:57.359Z,99661.53
2018-12-03T15:35:29.955Z,99660.31
2018-12-03T15:38:00.414Z,99658.34
2018-12-03T15:40:30.994Z,99657.24
2018-12-03T15:43:40.638Z,99658.72
2018-12-03T15:46:21.691Z,99664.55
2018-12-03T15:48:52.075Z,99660.78
2018-12-03T15:51:22.122Z,99663.32
2018-12-03T15:53:52.156Z,99663.93
2018-12-03T15:59:27.331Z,99670.14
2018-12-03T16:01:57.305Z,99676.21
2018-12-03T16:04:46.127Z,99668.81
2018-12-03T16:07:16.410Z,99666.36
2018-12-03T16:09:48.428Z,99670.05
2018-12-03T16:12:18.446Z,99669.43
2018-12-03T16:14:48.667Z,99669.16
2018-12-03T16:20:11.342Z,99673.96
2018-12-03T16:22:41.335Z,99666.42
2018-12-03T16:25:11.362Z,99666.42
2018-12-03T16:27:41.545Z,99669.14
2018-12-03T16:30:17.341Z,99675.83
2018-12-03T16:32:47.315Z,99675.88
2018-12-03T16:35:56.519Z,99685.47
2018-12-03T16:38:56.794Z,99683.85
2018-12-03T16:44:48.203Z,99688.48
2018-12-03T16:47:29.262Z,99687.67
2018-12-03T16:53:01.716Z,99693.34
2018-12-03T16:55:31.794Z,99699.51
2018-12-03T16:58:01.854Z,99699.89
2018-12-03T17:00:31.989Z,99690.67
2018-12-03T17:03:02.054Z,99703.44
2018-12-03T17:05:32.054Z,99714.03
2018-12-03T17:08:41.351Z,99710.02
2018-12-03T17:11:41.869Z,99714.89
2018-12-03T17:14:11.902Z,99712.91
2018-12-03T17:16:41.972Z,99715.82
2018-12-03T17:19:11.962Z,99708.55
2018-12-03T17:25:02.116Z,99708.42
2018-12-03T17:30:14.243Z,99708.18
2018-12-03T17:32:44.545Z,99708.59
2018-12-03T17:38:24.005Z,99708.30
2018-12-03T17:40:54.022Z,99708.34
2018-12-03T17:43:24.055Z,99705.80
2018-12-03T17:45:54.240Z,99705.27
2018-12-03T17:48:24.247Z,99701.09
2018-12-03T17:50:54.236Z,99700.30
2018-12-03T17:53:24.281Z,99693.45
2018-12-03T17:55:54.784Z,99686.05
2018-12-03T17:58:24.756Z,99685.05
2018-12-03T18:00:54.924Z,99687.30
2018-12-03T18:03:24.956Z,99685.25
2018-12-03T18:05:54.951Z,99683.19
2018-12-03T18:08:25.096Z,99691.58
2018-12-03T18:10:55.111Z,99694.73
2018-12-03T18:19:10.162Z,99692.33
2018-12-03T18:21:59.145Z,99703.28
2018-12-03T18:27:48.975Z,99695.63
2018-12-03T18:30:19.017Z,99702.80
2018-12-03T18:32:49.038Z,99703.78
2018-12-03T18:35:19.200Z,99705.65
2018-12-03T18:37:49.284Z,99699.32
2018-12-03T18:40:19.293Z,99700.43
2018-12-03T18:42:49.457Z,99697.64
2018-12-03T18:45:19.509Z,99703.00
2018-12-03T18:47:49.769Z,99695.48
2018-12-03T18:50:39.408Z,99697.41
2018-12-03T18:53:28.875Z,99701.64
2018-12-03T18:55:58.964Z,99701.72
2018-12-03T18:58:53.223Z,99699.16
2018-12-03T19:01:23.385Z,99696.95
2018-12-03T19:03:54.013Z,99696.92
2018-12-03T19:06:24.034Z,99695.23
2018-12-03T19:08:54.248Z,99691.52
2018-12-03T19:11:24.733Z,99688.79
2018-12-03T19:13:55.534Z,99688.41
2018-12-03T19:16:25.753Z,99686.05
2018-12-03T19:18:55.853Z,99678.69
2018-12-03T19:21:25.867Z,99677.69
2018-12-03T19:26:49.384Z,99675.25
2018-12-03T19:29:19.538Z,99670.11
2018-12-03T19:31:49.543Z,99673.78
2018-12-03T19:34:19.582Z,99673.16
2018-12-03T19:36:49.694Z,99668.47
2018-12-03T19:39:19.702Z,99673.47
2018-12-03T19:41:49.732Z,99671.24
2018-12-03T19:44:38.708Z,99681.56
2018-12-03T19:47:08.869Z,99679.23
2018-12-03T19:49:38.889Z,99685.73
2018-12-03T19:55:14.046Z,99689.37
2018-12-03T20:00:47.474Z,99690.88
2018-12-03T20:03:17.577Z,99683.52
2018-12-03T20:05:47.643Z,99681.11
2018-12-03T20:08:17.723Z,99681.45
2018-12-03T20:10:47.756Z,99679.06
2018-12-03T20:16:20.363Z,99677.20
2018-12-03T20:18:50.520Z,99675.73
2018-12-03T20:21:25.853Z,99672.48
2018-12-03T20:27:28.376Z,99668.38
2018-12-03T20:30:36.116Z,99668.75
2018-12-03T20:33:29.876Z,99667.55
2018-12-03T20:36:37.535Z,99671.11
2018-12-03T20:39:45.140Z,99663.67
2018-12-03T20:42:15.327Z,99664.02
2018-12-03T20:44:49.762Z,99666.20
2018-12-03T20:47:40.781Z,99664.63
2018-12-03T20:50:48.333Z,99657.06
2018-12-03T20:53:59.419Z,99669.64
2018-12-03T20:56:29.453Z,99665.28
2018-12-03T20:58:59.449Z,99673.67
2018-12-03T21:01:29.660Z,99674.02
2018-12-03T21:03:59.657Z,99682.14
2018-12-03T21:06:29.671Z,99701.53
2018-12-03T21:08:59.888Z,99701.39
2018-12-03T21:11:29.906Z,99704.14
2018-12-03T21:13:59.938Z,99702.19
2018-12-03T21:19:42.182Z,99702.12
2018-12-03T21:22:12.338Z,99700.72
2018-12-03T21:24:42.400Z,99700.98
2018-12-03T21:27:12.399Z,99703.80
2018-12-03T21:29:42.564Z,99702.05
2018-12-03T21:32:12.602Z,99710.34
2018-12-03T21:34:42.591Z,99717.09
2018-12-03T21:37:12.696Z,99717.38
2018-12-03T21:39:47.918Z,99722.76
2018-12-03T21:42:14.648Z,99718.98
2018-12-03T21:44:44.870Z,99716.95
2018-12-03T21:47:14.961Z,99752.61
2018-12-03T21:49:44.989Z,99766.59
2018-12-03T21:52:54.856Z,99771.97
2018-12-03T21:55:25.821Z,99788.86
2018-12-03T21:57:57.485Z,99798.51
2018-12-03T22:00:29.591Z,99800.82
2018-12-03T22:02:59.651Z,99804.70
2018-12-03T22:05:30.838Z,99818.75
2018-12-03T22:08:01.697Z,99823.80
2018-12-03T22:10:31.898Z,99843.20
2018-12-03T22:13:02.014Z,99843.78
2018-12-03T22:15:32.572Z,99854.30
2018-12-03T22:18:02.635Z,99866.25
2018-12-03T22:20:36.303Z,99880.14
2018-12-03T22:23:06.358Z,99881.98
2018-12-03T22:25:36.325Z,99896.24
2018-12-03T22:28:06.334Z,99889.75
2018-12-03T22:30:36.412Z,99901.38
2018-12-03T22:33:06.470Z,99902.87
2018-12-03T22:35:36.570Z,99912.75
2018-12-03T22:38:06.628Z,99917.55
2018-12-03T22:40:36.667Z,99930.16
2018-12-03T22:43:06.782Z,99935.64
2018-12-03T22:45:36.904Z,99933.55
2018-12-03T22:48:06.928Z,99944.61
2018-12-03T22:50:36.978Z,99951.34
2018-12-03T22:53:07.019Z,99964.73
2018-12-03T22:55:37.104Z,99968.49
2018-12-03T22:58:26.084Z,99977.59
2018-12-03T23:01:35.171Z,99977.59
2018-12-03T23:06:47.844Z,99981.47
2018-12-03T23:09:18.019Z,99984.88
2018-12-03T23:14:37.044Z,99986.39
2018-12-03T23:17:07.067Z,99984.83
2018-12-03T23:19:37.093Z,99995.91
2018-12-03T23:22:07.232Z,100005.29
2018-12-03T23:24:37.200Z,100009.59
2018-12-03T23:27:07.192Z,100014.09
2018-12-03T23:33:10.461Z,100022.41
2018-12-03T23:35:50.841Z,100025.12
2018-12-03T23:38:20.910Z,100032.59
2018-12-03T23:40:50.928Z,100033.80
2018-12-03T23:43:20.975Z,100038.02
2018-12-03T23:45:51.172Z,100044.11
2018-12-03T23:48:21.290Z,100048.60
2018-12-03T23:50:51.326Z,100056.59
2018-12-03T23:53:40.263Z,100052.30
2018-12-03T23:56:10.440Z,100061.80
